Time;durP1;ratioP1;P1;durP2;ratioP2;P2;SDS_P1;SDS_P2;PMS_P1;PMS_P2;Temp;Humidity;BMP_temperature;BMP_pressure;BME280_temperature;BME280_humidity;BME280_pressure;Samples;Min_cycle;Max_cycle;Signal;HPM_P1;HPM_P2
2022/04/16 00:03:11;;;;;;;0.88;0.60;;;;;;;17.62;55.38;97372.75;10334004;28;20038;-23
2022/04/16 00:08:12;;;;;;;0.70;0.70;;;;;;;17.61;55.32;97374.44;10370505;28;20125;-23
2022/04/16 00:13:12;;;;;;;0.50;0.50;;;;;;;17.59;55.51;97365.97;10363012;28;20042;-23
2022/04/16 00:18:13;;;;;;;0.57;0.57;;;;;;;17.60;55.55;97366.81;10333937;28;20044;-23
2022/04/16 00:23:14;;;;;;;0.70;0.70;;;;;;;17.60;55.58;97366.81;10369053;28;20076;-23
2022/04/16 00:28:15;;;;;;;0.73;0.70;;;;;;;17.57;55.34;97346.53;10356438;28;20041;-23
2022/04/16 00:33:15;;;;;;;0.40;0.40;;;;;;;17.69;57.24;97356.81;10327629;28;20042;-23
2022/04/16 00:38:15;;;;;;;0.63;0.63;;;;;;;17.88;58.33;97359.59;10327674;28;20457;-22
2022/04/16 00:43:22;;;;;;;0.30;0.30;;;;;;;17.82;56.08;97348.56;10327840;28;20489;-25
2022/04/16 00:48:23;;;;;;;0.40;0.38;;;;;;;17.72;55.29;97352.63;10334219;28;20447;-23
2022/04/16 00:53:33;;;;;;;0.47;0.47;;;;;;;17.66;55.35;97351.72;10368697;28;20042;-23
2022/04/16 00:58:33;;;;;;;0.35;0.35;;;;;;;17.63;55.18;97349.13;10350191;28;20038;-22
2022/04/16 01:03:34;;;;;;;0.70;0.70;;;;;;;17.60;55.23;97341.50;10327199;28;20041;-23
2022/04/16 01:08:34;;;;;;;0.50;0.50;;;;;;;17.60;55.26;97351.63;10333969;28;20167;-23
2022/04/16 01:13:36;;;;;;;0.60;0.60;;;;;;;17.58;55.46;97345.69;10345488;28;20460;-23
2022/04/16 01:18:45;;;;;;;0.68;0.68;;;;;;;17.59;55.15;97349.94;10327474;28;20060;-23
2022/04/16 01:23:46;;;;;;;0.70;0.70;;;;;;;17.59;55.52;97355.00;10332345;28;20041;-24
2022/04/16 01:28:46;;;;;;;1.00;0.67;;;;;;;17.59;55.37;97357.53;10335078;28;20390;-22
2022/04/16 01:33:47;;;;;;;0.85;0.65;;;;;;;17.59;55.36;97360.06;10335170;28;20293;-23
2022/04/16 01:38:47;;;;;;;0.70;0.70;;;;;;;17.62;57.40;97357.56;10335042;28;20054;-23
2022/04/16 01:43:47;;;;;;;0.83;0.50;;;;;;;17.86;57.79;97360.41;10334656;28;20031;-23
2022/04/16 01:48:53;;;;;;;0.40;0.40;;;;;;;17.89;55.81;97355.38;10334617;28;20327;-23
2022/04/16 01:53:54;;;;;;;0.50;0.50;;;;;;;17.67;55.75;97343.28;10334467;28;20435;-23
2022/04/16 01:58:54;;;;;;;0.33;0.30;;;;;;;17.65;55.22;97343.25;10365130;28;20041;-23
2022/04/16 02:03:54;;;;;;;0.43;0.43;;;;;;;17.61;55.07;97339.00;10362293;28;20049;-23
2022/04/16 02:08:55;;;;;;;0.63;0.40;;;;;;;17.60;54.92;97351.63;10344028;28;20034;-23
2022/04/16 02:13:55;;;;;;;0.50;0.40;;;;;;;17.58;55.00;97341.47;10352597;28;20033;-23
2022/04/16 02:18:56;;;;;;;0.50;0.50;;;;;;;17.57;55.07;97341.47;10333811;28;20038;-23
2022/04/16 02:23:57;;;;;;;0.50;0.43;;;;;;;17.57;55.05;97344.00;10333539;28;20516;-23
2022/04/16 02:28:58;;;;;;;0.40;0.40;;;;;;;17.58;54.95;97348.22;10349283;28;20037;-22
2022/04/16 02:33:59;;;;;;;0.47;0.47;;;;;;;17.57;55.33;97338.94;10358928;28;20061;-23
2022/04/16 02:39:00;;;;;;;0.60;0.53;;;;;;;17.49;55.12;97327.84;10332678;28;20042;-23
2022/04/16 02:44:00;;;;;;;0.60;0.60;;;;;;;17.57;55.53;97339.78;10331808;28;20316;-23
2022/04/16 02:49:00;;;;;;;0.90;0.80;;;;;;;17.81;57.97;97336.69;10343376;28;20109;-23
2022/04/16 02:54:01;;;;;;;0.80;0.60;;;;;;;17.91;57.14;97338.53;10372664;28;20041;-23
2022/04/16 02:59:01;;;;;;;0.40;0.40;;;;;;;17.74;55.33;97328.19;10348861;28;20042;-24
2022/04/16 03:04:02;;;;;;;0.47;0.47;;;;;;;17.67;55.12;97343.28;10331266;28;20038;-24
2022/04/16 03:09:02;;;;;;;0.50;0.50;;;;;;;17.62;55.22;97329.69;10342831;28;20033;-23
2022/04/16 03:17:31;;;;;;;0.55;0.55;;;;;;;17.60;55.02;97332.25;10357820;28;20125;-23
2022/04/16 03:19:23;;;;;;;0.47;0.47;;;;;;;17.57;55.05;97324.59;10331374;28;20030;-23
2022/04/16 03:24:23;;;;;;;0.40;0.40;;;;;;;17.58;55.05;97327.97;10330828;28;20034;-23
2022/04/16 03:29:24;;;;;;;1.30;0.60;;;;;;;17.57;55.03;97323.75;10330158;28;20566;-22
2022/04/16 03:34:24;;;;;;;0.55;0.52;;;;;;;17.57;55.14;97321.22;10329928;28;20034;-24
2022/04/16 03:39:25;;;;;;;0.60;0.60;;;;;;;17.56;55.07;97324.59;10329998;28;20046;-23
2022/04/16 03:44:25;;;;;;;0.60;0.60;;;;;;;17.56;54.97;97320.34;10329903;28;20026;-23
2022/04/16 03:49:26;;;;;;;0.53;0.40;;;;;;;17.55;54.90;97323.72;10329472;28;20030;-23
2022/04/16 04:00:00;;;;;;;0.70;0.70;;;;;;;17.89;57.67;97324.97;10350114;28;20041;-23
2022/04/16 04:05:02;;;;;;;0.40;0.40;;;;;;;17.74;55.46;97322.28;10349009;28;20034;-23
2022/04/16 04:10:03;;;;;;;0.60;0.60;;;;;;;17.66;55.21;97331.47;10347579;28;20489;-25
2022/04/16 04:15:05;;;;;;;0.30;0.30;;;;;;;17.62;55.21;97349.97;10368809;28;20619;-23
2022/04/16 04:20:06;;;;;;;0.52;0.52;;;;;;;17.59;55.18;97345.69;10348188;28;20045;-23
2022/04/16 04:25:07;;;;;;;0.50;0.50;;;;;;;17.55;55.04;97340.56;10328644;28;20033;-23
2022/04/16 04:30:08;;;;;;;0.52;0.52;;;;;;;17.57;55.05;97351.59;10328689;28;20044;-23
2022/04/16 04:35:09;;;;;;;0.85;0.40;;;;;;;17.56;55.07;97354.97;10328581;28;20112;-23
2022/04/16 04:40:09;;;;;;;0.70;0.60;;;;;;;17.54;55.06;97357.47;10327829;28;20102;-24
2022/04/16 04:45:14;;;;;;;0.65;0.57;;;;;;;17.55;54.96;97359.16;10327762;28;20030;-23
2022/04/16 04:50:15;;;;;;;0.50;0.50;;;;;;;17.53;54.91;97349.84;10328184;28;20121;-23
2022/04/16 04:55:15;;;;;;;0.47;0.43;;;;;;;17.54;55.16;97366.72;10327545;28;20026;-23
2022/04/16 05:00:16;;;;;;;0.50;0.50;;;;;;;17.70;57.44;97359.38;10366553;28;20087;-23
2022/04/16 05:05:17;;;;;;;0.50;0.50;;;;;;;17.86;57.61;97365.47;10344733;28;20046;-23
2022/04/16 05:10:18;;;;;;;0.55;0.43;;;;;;;17.77;55.72;97367.91;10348281;28;20040;-23
2022/04/16 05:15:18;;;;;;;0.70;0.50;;;;;;;17.66;55.15;97366.91;10333690;28;20054;-23
2022/04/16 05:20:20;;;;;;;0.60;0.60;;;;;;;17.60;55.25;97367.69;10349483;28;20415;-23
2022/04/16 05:25:21;;;;;;;0.57;0.50;;;;;;;17.58;54.89;97378.63;10367451;28;20363;-22
2022/04/16 05:30:34;;;;;;;0.75;0.40;;;;;;;17.56;55.03;97376.06;10333055;28;20298;-22
2022/04/16 05:35:35;;;;;;;0.95;0.55;;;;;;;17.51;54.96;97384.41;10350657;28;20459;-24
2022/04/16 05:40:35;;;;;;;0.50;0.47;;;;;;;17.54;55.06;97412.28;10362617;28;20077;-23
2022/04/16 05:45:35;;;;;;;0.90;0.50;;;;;;;17.53;54.98;97403.00;10326715;28;20036;-24
2022/04/16 05:50:37;;;;;;;0.40;0.40;;;;;;;17.53;55.30;97403.00;10351060;28;20040;-23
2022/04/16 05:55:39;;;;;;;0.77;0.65;;;;;;;17.53;55.05;97405.53;10367323;28;20041;-24
2022/04/16 06:00:40;;;;;;;0.70;0.40;;;;;;;17.51;54.93;97408.03;10339782;28;20397;-23
2022/04/16 06:05:40;;;;;;;0.50;0.50;;;;;;;17.58;57.00;97399.69;10325765;28;20046;-23
2022/04/16 06:10:41;;;;;;;0.30;0.30;;;;;;;17.78;57.40;97410.13;10356144;28;20052;-23
2022/04/16 06:15:42;;;;;;;0.40;0.40;;;;;;;17.81;56.08;97432.94;10340009;28;20041;-23
2022/04/16 06:20:42;;;;;;;0.50;0.30;;;;;;;17.64;55.28;97431.84;10359031;28;20030;-23
2022/04/16 06:25:42;;;;;;;0.30;0.30;;;;;;;17.57;55.19;97435.16;10373766;28;20401;-22
2022/04/16 06:30:43;;;;;;;0.40;0.40;;;;;;;17.54;55.17;97442.69;10344781;28;20042;-23
2022/04/16 06:35:43;;;;;;;0.40;0.40;;;;;;;17.44;55.13;97435.78;10333142;28;20481;-22
2022/04/16 06:40:43;;;;;;;0.43;0.40;;;;;;;17.50;55.08;97434.19;10332941;28;20535;-22
2022/04/16 06:45:44;;;;;;;0.40;0.40;;;;;;;17.49;55.02;97429.94;10332206;28;20381;-23
2022/04/16 06:50:45;;;;;;;0.30;0.30;;;;;;;17.45;55.13;97422.28;10331453;28;20061;-23
2022/04/16 06:55:45;;;;;;;0.47;0.40;;;;;;;17.48;54.78;97423.19;10331724;28;20559;-23
2022/04/16 07:00:45;;;;;;;1.07;0.53;;;;;;;17.47;55.12;97428.22;10331823;28;20092;-23
2022/04/16 07:05:46;;;;;;;0.50;0.50;;;;;;;17.48;55.29;97438.38;10331075;28;20035;-23
2022/04/16 07:10:46;;;;;;;0.50;0.50;;;;;;;17.47;54.98;97438.34;10356916;28;20084;-22
2022/04/16 07:15:47;;;;;;;0.40;0.40;;;;;;;17.70;57.07;97445.47;10370112;28;20124;-23
2022/04/16 07:20:47;;;;;;;0.50;0.50;;;;;;;17.82;57.35;97449.88;10344469;28;20045;-23
2022/04/16 07:25:47;;;;;;;0.40;0.40;;;;;;;17.69;55.49;97443.78;10329971;28;20080;-23
2022/04/16 07:30:49;;;;;;;0.47;0.40;;;;;;;17.59;54.92;97446.16;10330955;28;20031;-23
2022/04/16 07:35:49;;;;;;;0.30;0.30;;;;;;;17.55;55.11;97446.91;10329945;28;20297;-23
2022/04/16 07:40:50;;;;;;;0.50;0.50;;;;;;;17.50;55.02;97451.91;10330914;28;20042;-22
2022/04/16 07:45:50;;;;;;;0.40;0.40;;;;;;;17.49;54.92;97459.50;10330176;28;20388;-23
2022/04/16 07:50:51;;;;;;;0.40;0.40;;;;;;;17.46;55.16;97457.75;10356303;28;20033;-23
2022/04/16 07:55:51;;;;;;;0.30;0.30;;;;;;;17.46;54.92;97464.50;10370638;28;20293;-23
2022/04/16 08:00:51;;;;;;;0.50;0.50;;;;;;;17.45;54.92;97467.84;10334925;28;20080;-25
2022/04/16 08:05:52;;;;;;;0.40;0.40;;;;;;;17.44;55.01;97467.03;10329347;28;20033;-23
2022/04/16 08:10:53;;;;;;;0.33;0.33;;;;;;;17.44;54.91;97473.75;10347418;28;20041;-24
2022/04/16 08:15:53;;;;;;;0.40;0.40;;;;;;;17.44;55.11;97473.75;10329556;28;20092;-23
2022/04/16 08:20:53;;;;;;;0.40;0.40;;;;;;;17.56;56.46;97476.50;10355676;28;20061;-23
2022/04/16 08:25:54;;;;;;;0.60;0.50;;;;;;;17.74;57.07;97471.69;10365810;28;20292;-23
2022/04/16 08:30:55;;;;;;;0.30;0.30;;;;;;;17.73;55.67;97491.09;10329249;28;20038;-23
2022/04/16 08:35:55;;;;;;;0.40;0.40;;;;;;;17.59;54.93;97484.97;10328212;28;20046;-23
2022/04/16 08:40:56;;;;;;;0.50;0.40;;;;;;;17.52;55.04;97474.72;10328643;28;20042;-23
2022/04/16 08:45:56;;;;;;;0.40;0.40;;;;;;;17.50;54.90;97476.38;10327723;28;20054;-22
2022/04/16 08:50:58;;;;;;;0.40;0.40;;;;;;;17.48;54.99;97475.53;10354966;28;20537;-22
2022/04/16 08:55:58;;;;;;;0.30;0.30;;;;;;;17.47;54.99;97471.25;10360896;28;20038;-23
2022/04/16 09:00:59;;;;;;;0.40;0.40;;;;;;;17.44;54.78;97481.34;10327574;28;20049;-25
2022/04/16 09:05:59;;;;;;;0.50;0.50;;;;;;;17.44;54.81;97491.47;10327236;28;20038;-23
2022/04/16 09:11:11;;;;;;;0.45;0.45;;;;;;;17.44;54.98;97492.34;10350442;28;20455;-23
2022/04/16 09:16:12;;;;;;;0.38;0.38;;;;;;;17.41;55.04;97496.50;10327373;28;20038;-23
2022/04/16 09:21:15;;;;;;;0.40;0.40;;;;;;;17.39;54.96;97493.94;10327729;28;20034;-22
2022/04/16 09:26:36;;;;;;;0.32;0.30;;;;;;;17.42;55.44;97501.56;10327026;28;20034;-23
2022/04/16 09:31:38;;;;;;;0.35;0.32;;;;;;;17.68;57.94;97510.41;10326812;28;20050;-23
2022/04/16 09:36:44;;;;;;;0.38;0.38;;;;;;;17.72;55.07;97511.31;10326483;28;20042;-22
2022/04/16 09:41:51;;;;;;;0.40;0.28;;;;;;;17.59;55.10;97517.03;10326636;28;20496;-23
2022/04/16 09:46:53;;;;;;;0.30;0.30;;;;;;;17.49;54.93;97505.91;10334600;28;20034;-23
2022/04/16 09:52:00;;;;;;;0.32;0.32;;;;;;;17.43;55.31;97502.44;10333979;28;20042;-23
2022/04/16 09:57:01;;;;;;;0.32;0.32;;;;;;;17.45;54.91;97508.38;10334104;28;20037;-23
2022/04/16 10:02:03;;;;;;;0.30;0.30;;;;;;;17.43;55.14;97500.75;10334591;28;20049;-23
2022/04/16 10:07:04;;;;;;;0.40;0.40;;;;;;;17.32;55.01;97491.25;10333950;28;20520;-23
2022/04/16 10:17:29;;;;;;;0.38;0.38;;;;;;;17.41;55.09;97506.63;10333958;28;20034;-23
2022/04/16 10:22:29;;;;;;;0.25;0.25;;;;;;;17.40;54.82;97495.63;10334252;28;20493;-23
2022/04/16 10:27:31;;;;;;;0.20;0.20;;;;;;;17.35;54.67;97496.34;10333507;28;20038;-23
2022/04/16 10:32:40;;;;;;;0.40;0.40;;;;;;;17.32;54.99;97491.25;10332409;28;20045;-23
2022/04/16 10:37:42;;;;;;;0.30;0.30;;;;;;;17.65;56.82;97496.88;10332661;28;20116;-23
2022/04/16 10:42:47;;;;;;;0.40;0.40;;;;;;;17.65;56.72;97484.22;10332820;28;20049;-24
2022/04/16 10:47:54;;;;;;;0.47;0.47;;;;;;;17.61;55.06;97505.25;10332398;28;20100;-23
2022/04/16 10:52:55;;;;;;;;;;;;;;;17.51;54.86;97499.19;10332754;28;20030;-23
2022/04/16 10:58:03;;;;;;;0.38;0.38;;;;;;;17.45;54.93;97493.16;10330971;28;19918;-23
2022/04/16 11:03:12;;;;;;;0.60;0.60;;;;;;;17.44;55.15;97491.47;10331813;28;20489;-23
2022/04/16 11:08:14;;;;;;;0.85;0.30;;;;;;;17.42;54.68;97480.47;10335573;28;20386;-23
2022/04/16 11:13:15;;;;;;;0.40;0.30;;;;;;;17.40;55.00;97489.72;10345847;28;20038;-23
2022/04/16 11:18:17;;;;;;;0.40;0.40;;;;;;;17.39;55.09;97493.06;10331210;28;20068;-23
2022/04/16 11:23:17;;;;;;;0.20;0.20;;;;;;;17.41;55.00;97493.97;10331642;28;20113;-23
2022/04/16 11:39:04;;;;;;;0.20;0.20;;;;;;;17.40;54.54;97479.59;10330150;28;20068;-23
2022/04/16 11:44:04;;;;;;;0.40;0.40;;;;;;;17.58;56.62;97464.69;10359690;28;20091;-23
2022/04/16 11:49:04;;;;;;;0.40;0.40;;;;;;;17.72;57.21;97474.19;10357730;28;20397;-23
2022/04/16 11:54:06;;;;;;;0.30;0.30;;;;;;;17.64;55.56;97473.22;10329769;28;20117;-24
2022/04/16 11:59:06;;;;;;;0.20;0.20;;;;;;;17.52;55.27;97479.78;10346033;28;20307;-23
2022/04/16 12:04:07;;;;;;;0.30;0.30;;;;;;;17.46;55.00;97474.63;10356510;28;20036;-23
2022/04/16 12:09:11;;;;;;;0.38;0.32;;;;;;;17.37;54.99;97454.22;10340554;28;20511;-23
2022/04/16 12:14:17;;;;;;;0.20;0.20;;;;;;;17.41;54.96;97466.13;10337347;28;20049;-23
2022/04/16 12:19:17;;;;;;;0.30;0.30;;;;;;;17.40;55.04;97469.47;10342423;28;20041;-23
2022/04/16 12:24:26;;;;;;;0.30;0.30;;;;;;;17.39;55.14;97472.81;10369517;28;20045;-23
2022/04/16 12:29:31;;;;;;;0.30;0.30;;;;;;;17.37;55.13;97461.81;10348785;28;20064;-23
2022/04/16 12:34:32;;;;;;;0.30;0.30;;;;;;;17.38;54.92;97461.00;10343442;28;20040;-23
2022/04/16 12:39:32;;;;;;;0.40;0.30;;;;;;;17.38;55.22;97464.38;10368679;28;20037;-24
2022/04/16 12:44:32;;;;;;;0.20;0.20;;;;;;;17.37;54.80;97469.41;10344120;28;20164;-23
2022/04/16 12:49:33;;;;;;;0.50;0.50;;;;;;;17.49;56.64;97460.34;10343345;28;20049;-23
2022/04/16 12:54:35;;;;;;;0.63;0.63;;;;;;;17.68;58.18;97469.06;10367864;28;20099;-23
2022/04/16 12:59:36;;;;;;;0.22;0.22;;;;;;;17.71;55.16;97476.69;10347448;28;20046;-23
2022/04/16 13:04:37;;;;;;;0.45;0.45;;;;;;;17.57;55.17;97475.66;10327214;28;20403;-23
2022/04/16 13:09:37;;;;;;;0.20;0.20;;;;;;;17.42;55.11;97457.69;10343037;28;20100;-24
2022/04/16 13:14:39;;;;;;;0.40;0.30;;;;;;;17.44;54.99;97461.09;10366579;28;20454;-23
2022/04/16 13:19:40;;;;;;;0.60;0.50;;;;;;;17.41;55.16;97468.66;10349177;28;20738;-23
2022/04/16 13:24:41;;;;;;;0.20;0.20;;;;;;;17.39;54.90;97482.94;10327267;28;20117;-23
2022/04/16 13:29:41;;;;;;;0.22;0.22;;;;;;;17.38;54.80;97466.06;10326307;28;20474;-23
2022/04/16 13:34:43;;;;;;;0.20;0.20;;;;;;;17.40;55.12;97470.31;10326486;28;20038;-23
2022/04/16 13:45:02;;;;;;;0.30;0.30;;;;;;;17.38;55.15;97464.38;10326374;28;20102;-24
2022/04/16 13:50:04;;;;;;;0.25;0.25;;;;;;;17.36;55.05;97457.59;10326652;28;20496;-24
2022/04/16 13:55:08;;;;;;;0.30;0.30;;;;;;;17.35;54.96;97456.72;10326308;28;20077;-23
2022/04/16 14:00:09;;;;;;;0.43;0.43;;;;;;;17.61;56.91;97464.75;10326692;28;20475;-24
2022/04/16 14:10:34;;;;;;;0.30;0.30;;;;;;;17.55;55.43;97454.50;10346205;28;20478;-23
2022/04/16 14:15:35;;;;;;;0.30;0.30;;;;;;;17.47;54.73;97456.06;10325815;28;20129;-23
2022/04/16 14:20:36;;;;;;;0.15;0.15;;;;;;;17.44;55.14;97453.50;10350848;28;20037;-23
2022/04/16 14:25:38;;;;;;;0.25;0.25;;;;;;;17.41;55.08;97445.88;10362230;28;20033;-23
2022/04/16 14:30:38;;;;;;;0.40;0.40;;;;;;;17.42;54.96;97447.56;10330080;28;20046;-23
2022/04/16 14:35:41;;;;;;;0.40;0.40;;;;;;;17.41;54.92;97430.69;10333188;28;20057;-23
2022/04/16 14:40:42;;;;;;;0.40;0.30;;;;;;;17.40;55.05;97444.16;10332574;28;20046;-23
2022/04/16 14:45:44;;;;;;;0.20;0.20;;;;;;;17.41;55.17;97445.88;10332123;28;20413;-23
2022/04/16 14:50:44;;;;;;;0.40;0.30;;;;;;;17.40;54.98;97449.22;10357459;28;20038;-24
2022/04/16 14:55:45;;;;;;;0.23;0.20;;;;;;;17.37;54.91;97434.84;10372240;28;20048;-23
2022/04/16 15:00:45;;;;;;;0.20;0.20;;;;;;;17.37;55.12;97444.97;10343104;28;20042;-23
2022/04/16 15:05:45;;;;;;;0.60;0.40;;;;;;;17.57;56.76;97455.41;10356396;28;20050;-23
2022/04/16 15:10:46;;;;;;;0.30;0.30;;;;;;;17.57;58.71;97417.44;10372389;28;20034;-23
2022/04/16 15:15:46;;;;;;;0.30;0.30;;;;;;;17.65;55.92;97441.19;10337155;28;20533;-23
2022/04/16 15:20:47;;;;;;;0.20;0.20;;;;;;;17.52;55.37;97440.16;10356817;28;20112;-23
2022/04/16 15:25:47;;;;;;;0.10;0.10;;;;;;;17.41;55.32;97428.16;10369719;28;20033;-23
2022/04/16 15:30:48;;;;;;;0.40;0.38;;;;;;;17.41;55.04;97441.63;10330472;28;20030;-23
2022/04/16 15:35:48;;;;;;;0.30;0.30;;;;;;;17.42;55.20;97445.03;10355713;28;20037;-23
2022/04/16 15:40:49;;;;;;;0.30;0.30;;;;;;;17.40;54.96;97445.00;10365221;28;20041;-23
2022/04/16 15:45:49;;;;;;;0.20;0.20;;;;;;;17.40;55.24;97459.34;10330134;28;20034;-23
2022/04/16 15:50:50;;;;;;;0.35;0.35;;;;;;;17.37;55.09;97449.16;10356822;28;20034;-25
2022/04/16 15:55:51;;;;;;;0.35;0.30;;;;;;;17.38;55.12;97445.81;10369923;28;20527;-23
2022/04/16 16:00:51;;;;;;;0.40;0.40;;;;;;;17.37;55.08;97456.75;10340027;28;20121;-23
2022/04/16 16:05:53;;;;;;;0.30;0.30;;;;;;;17.36;54.77;97452.53;10328946;28;20054;-23
2022/04/16 16:10:54;;;;;;;0.20;0.20;;;;;;;17.39;56.76;97447.50;10354470;28;20507;-24
2022/04/16 16:15:55;;;;;;;0.50;0.50;;;;;;;17.67;57.25;97464.84;10329445;28;20026;-23
2022/04/16 16:20:56;;;;;;;0.32;0.32;;;;;;;17.72;55.63;97458.13;10329142;28;20042;-22
2022/04/16 16:25:56;;;;;;;0.40;0.40;;;;;;;17.57;55.44;97453.72;10328680;28;20026;-23
2022/04/16 16:30:56;;;;;;;0.30;0.30;;;;;;;17.50;55.22;97461.19;10328288;28;20311;-23
2022/04/16 16:35:57;;;;;;;0.30;0.30;;;;;;;17.43;54.95;97465.31;10328380;28;20049;-24
2022/04/16 16:40:58;;;;;;;0.30;0.30;;;;;;;17.41;55.23;97476.25;10328606;28;20121;-23
2022/04/16 16:45:59;;;;;;;0.40;0.40;;;;;;;17.40;55.34;97480.44;10358406;28;20033;-25
2022/04/16 16:50:59;;;;;;;0.40;0.30;;;;;;;17.39;54.83;97472.81;10339875;28;20408;-24
2022/04/16 16:55:59;;;;;;;0.20;0.20;;;;;;;17.38;55.21;97473.66;10326582;28;20042;-23
2022/04/16 17:01:00;;;;;;;0.30;0.30;;;;;;;17.37;55.00;97475.34;10327739;28;20042;-23
2022/04/16 17:06:01;;;;;;;0.30;0.30;;;;;;;17.37;54.91;97479.53;10327200;28;20380;-23
2022/04/16 17:11:03;;;;;;;0.35;0.35;;;;;;;17.38;55.09;97476.19;10352849;28;20674;-25
2022/04/16 17:21:23;;;;;;;0.40;0.40;;;;;;;17.60;57.02;97478.22;10335756;28;20117;-22
2022/04/16 17:26:23;;;;;;;0.30;0.30;;;;;;;17.73;57.83;97492.78;10327239;28;20036;-23
2022/04/16 17:31:23;;;;;;;0.30;0.30;;;;;;;17.61;55.51;97487.53;10326968;28;20289;-23
2022/04/16 17:36:24;;;;;;;0.40;0.40;;;;;;;17.49;54.85;97493.25;10356825;28;20053;-23
2022/04/16 17:41:25;;;;;;;0.38;0.30;;;;;;;17.44;55.34;97492.34;10362669;28;20426;-23
2022/04/16 17:46:26;;;;;;;0.32;0.30;;;;;;;17.43;55.29;97494.84;10326386;28;20168;-23
2022/04/16 17:51:26;;;;;;;0.30;0.30;;;;;;;17.41;55.36;97504.09;10327229;28;20041;-23
2022/04/16 17:56:26;;;;;;;0.30;0.30;;;;;;;17.39;55.02;97505.72;10334322;28;20046;-23
2022/04/16 18:01:27;;;;;;;0.40;0.40;;;;;;;17.39;55.04;97509.13;10367606;28;20038;-23
2022/04/16 18:06:27;;;;;;;0.20;0.20;;;;;;;17.38;55.12;97515.00;10340679;28;20026;-23
2022/04/16 18:11:28;;;;;;;0.37;0.37;;;;;;;17.38;55.00;97521.72;10356131;28;20044;-23
2022/04/16 18:16:28;;;;;;;0.40;0.40;;;;;;;17.37;55.11;97518.38;10333617;28;20089;-23
2022/04/16 18:21:29;;;;;;;0.30;0.30;;;;;;;17.37;55.06;97525.09;10333674;28;20216;-23
2022/04/16 18:26:31;;;;;;;0.30;0.30;;;;;;;17.48;57.42;97528.69;10333904;28;20030;-23
2022/04/16 18:31:34;;;;;;;0.50;0.50;;;;;;;17.62;57.76;97527.22;10333198;28;20054;-23
2022/04/16 18:36:38;;;;;;;0.30;0.30;;;;;;;17.68;56.04;97538.28;10332975;28;20442;-23
2022/04/16 18:41:38;;;;;;;0.30;0.30;;;;;;;17.55;55.39;97543.13;10333356;28;20038;-23
2022/04/16 18:46:39;;;;;;;0.25;0.25;;;;;;;17.45;55.39;97549.72;10332299;28;20402;-23
2022/04/16 18:51:39;;;;;;;0.20;0.20;;;;;;;17.42;55.26;97553.88;10332113;28;20034;-23
2022/04/16 18:56:40;;;;;;;0.63;0.43;;;;;;;17.43;55.14;97575.84;10331761;28;20285;-23
2022/04/16 19:06:59;;;;;;;0.38;0.38;;;;;;;17.39;55.15;97574.06;10332057;28;20075;-24
2022/04/16 19:12:08;;;;;;;0.50;0.40;;;;;;;17.38;55.12;97573.22;10365490;28;20038;-23
2022/04/16 19:17:11;;;;;;;0.50;0.50;;;;;;;17.37;55.22;97570.66;10330840;28;20408;-23
2022/04/16 19:22:14;;;;;;;0.40;0.40;;;;;;;17.38;55.18;97580.81;10331017;28;20046;-24
2022/04/16 19:27:15;;;;;;;0.28;0.28;;;;;;;17.38;55.16;97582.47;10331383;28;20042;-22
2022/04/16 19:32:15;;;;;;;0.53;0.53;;;;;;;17.38;55.39;97587.53;10330814;28;20038;-22
2022/04/16 19:37:16;;;;;;;0.40;0.40;;;;;;;17.62;58.34;97590.50;10331211;28;20314;-23
2022/04/16 19:42:17;;;;;;;0.40;0.40;;;;;;;17.73;57.95;97591.56;10330240;28;20022;-24
2022/04/16 19:47:17;;;;;;;0.47;0.40;;;;;;;17.58;55.93;97584.53;10329434;28;20080;-23
2022/04/16 19:52:17;;;;;;;0.50;0.50;;;;;;;17.51;55.47;97599.63;10367937;28;20030;-23
2022/04/16 19:57:18;;;;;;;0.50;0.50;;;;;;;17.45;55.52;97600.38;10364181;28;20104;-23
2022/04/16 20:02:19;;;;;;;0.32;0.30;;;;;;;17.43;55.32;97596.09;10330334;28;20285;-23
2022/04/16 20:07:19;;;;;;;0.40;0.40;;;;;;;17.39;55.15;97586.72;10329967;28;20050;-23
2022/04/16 20:12:20;;;;;;;0.43;0.43;;;;;;;17.39;55.55;97589.25;10365099;28;20034;-24
2022/04/16 20:17:20;;;;;;;0.28;0.28;;;;;;;17.39;55.57;97581.66;10370392;28;20029;-23
2022/04/16 20:22:20;;;;;;;0.30;0.30;;;;;;;17.39;55.28;97592.66;10330223;28;20084;-21
2022/04/16 20:27:21;;;;;;;0.33;0.33;;;;;;;17.38;55.29;97587.53;10328904;28;20072;-23
2022/04/16 20:32:22;;;;;;;0.40;0.40;;;;;;;17.39;55.14;97574.06;10329068;28;20042;-21
2022/04/16 20:37:23;;;;;;;0.22;0.22;;;;;;;17.39;55.21;97579.13;10330816;28;20038;-22
2022/04/16 20:47:42;;;;;;;1.15;0.45;;;;;;;17.68;58.04;97575.44;10330040;28;20100;-22
2022/04/16 20:58:02;;;;;;;0.50;0.50;;;;;;;17.53;55.42;97582.75;10329121;28;20049;-21
2022/04/16 21:03:03;;;;;;;0.40;0.40;;;;;;;17.44;55.56;97573.34;10330738;28;20508;-24
2022/04/16 21:08:03;;;;;;;0.30;0.30;;;;;;;17.45;55.24;97579.25;10331833;28;20489;-21
2022/04/16 21:13:05;;;;;;;0.45;0.45;;;;;;;17.44;55.40;97575.00;10345254;28;20074;-22
2022/04/16 21:18:05;;;;;;;0.32;0.32;;;;;;;17.31;55.09;97551.13;10333543;28;20046;-22
2022/04/16 21:23:06;;;;;;;0.38;0.38;;;;;;;17.43;55.40;97573.31;10369344;28;20500;-22
2022/04/16 21:28:06;;;;;;;0.50;0.50;;;;;;;17.41;55.13;97563.16;10347303;28;20038;-22
2022/04/16 21:33:07;;;;;;;0.30;0.30;;;;;;;17.41;55.19;97558.09;10329298;28;20034;-21
2022/04/16 21:38:09;;;;;;;0.30;0.30;;;;;;;17.43;55.31;97565.72;10330574;28;20101;-22
2022/04/16 21:43:09;;;;;;;0.52;0.52;;;;;;;17.40;55.17;97556.38;10347803;28;20029;-22
2022/04/16 21:48:10;;;;;;;0.30;0.30;;;;;;;17.42;55.55;97558.94;10373353;28;20053;-21
2022/04/16 21:53:10;;;;;;;0.50;0.40;;;;;;;17.64;58.22;97568.59;10337928;28;20042;-22
2022/04/16 21:58:11;;;;;;;0.40;0.40;;;;;;;17.71;57.70;97567.88;10336773;28;20718;-21
2022/04/16 22:03:11;;;;;;;0.47;0.47;;;;;;;17.55;56.11;97555.78;10336759;28;20633;-22
2022/04/16 22:08:12;;;;;;;0.40;0.40;;;;;;;17.51;55.66;97569.22;10339583;28;20567;-21
2022/04/16 22:13:14;;;;;;;0.40;0.40;;;;;;;17.47;55.39;97572.53;10360449;28;20038;-21
2022/04/16 22:18:15;;;;;;;0.38;0.38;;;;;;;17.45;55.41;97569.13;10341239;28;20499;-21
2022/04/16 22:23:15;;;;;;;0.40;0.40;;;;;;;17.43;55.40;97566.59;10376721;28;20042;-23
2022/04/16 22:28:15;;;;;;;0.50;0.50;;;;;;;17.42;55.49;97569.06;10365240;28;20125;-21
2022/04/16 22:33:16;;;;;;;0.37;0.37;;;;;;;17.43;55.13;97565.72;10334939;28;20045;-22
2022/04/16 22:43:37;;;;;;;0.50;0.50;;;;;;;17.40;55.22;97569.03;10352502;28;20033;-21
2022/04/16 22:48:37;;;;;;;0.45;0.45;;;;;;;17.40;55.10;97569.03;10364420;28;20038;-22
2022/04/16 22:53:38;;;;;;;0.40;0.40;;;;;;;17.40;55.32;97569.03;10332354;28;20042;-24
2022/04/16 22:58:39;;;;;;;0.40;0.40;;;;;;;17.55;58.23;97566.78;10354582;28;20037;-22
2022/04/16 23:03:39;;;;;;;0.30;0.30;;;;;;;17.69;57.79;97559.41;10363285;28;20038;-22
2022/04/16 23:08:39;;;;;;;0.20;0.20;;;;;;;17.63;56.62;97554.22;10338581;28;20034;-21
2022/04/16 23:13:40;;;;;;;0.50;0.50;;;;;;;17.52;55.40;97556.59;10370659;28;20300;-21
2022/04/16 23:18:40;;;;;;;0.33;0.33;;;;;;;17.46;55.55;97553.09;10363017;28;20041;-21
2022/04/16 23:23:40;;;;;;;0.40;0.40;;;;;;;17.41;55.37;97547.13;10331016;28;20453;-21
2022/04/16 23:28:41;;;;;;;0.50;0.50;;;;;;;17.40;55.13;97541.19;10330921;28;20034;-22
2022/04/16 23:33:41;;;;;;;0.30;0.30;;;;;;;17.40;55.01;97543.72;10330351;28;20433;-21
2022/04/16 23:38:43;;;;;;;0.53;0.50;;;;;;;17.35;55.62;97530.13;10330476;28;20780;-21
2022/04/16 23:43:43;;;;;;;0.75;0.50;;;;;;;17.38;55.22;97529.34;10346570;28;20383;-21
2022/04/16 23:48:44;;;;;;;0.40;0.40;;;;;;;17.37;55.19;97520.91;10360916;28;20026;-21
2022/04/16 23:53:44;;;;;;;0.40;0.40;;;;;;;17.37;55.04;97522.56;10329859;28;20325;-21
2022/04/16 23:58:44;;;;;;;0.57;0.57;;;;;;;17.37;55.44;97515.84;10329763;28;20301;-21
